createdAt,value
2022-10-13T00:00:15.590Z,15.70
2022-10-13T00:02:43.424Z,15.70
2022-10-13T00:05:14.468Z,15.70
2022-10-13T00:07:42.437Z,15.70
2022-10-13T00:10:11.743Z,15.50
2022-10-13T00:12:39.819Z,15.20
2022-10-13T00:15:09.160Z,15.30
2022-10-13T00:17:37.409Z,15.50
2022-10-13T00:20:05.456Z,15.60
2022-10-13T00:22:33.323Z,15.50
2022-10-13T00:25:01.425Z,15.20
2022-10-13T00:27:35.747Z,15.40
2022-10-13T00:30:04.027Z,15.00
2022-10-13T00:32:31.900Z,14.90
2022-10-13T00:35:00.002Z,15.30
2022-10-13T00:37:28.111Z,15.30
2022-10-13T00:39:58.869Z,15.30
2022-10-13T00:42:27.248Z,15.20
2022-10-13T00:45:07.437Z,15.40
2022-10-13T00:47:36.613Z,15.70
2022-10-13T00:50:07.298Z,15.30
2022-10-13T00:52:35.189Z,15.80
2022-10-13T00:55:03.181Z,15.70
2022-10-13T00:57:31.317Z,15.70
2022-10-13T00:59:59.386Z,15.60
2022-10-13T01:02:29.284Z,15.50
2022-10-13T01:05:01.048Z,15.30
2022-10-13T01:07:28.937Z,15.00
2022-10-13T01:09:56.834Z,15.20
2022-10-13T01:12:28.128Z,15.30
2022-10-13T01:14:57.623Z,15.00
2022-10-13T01:17:29.136Z,15.00
2022-10-13T01:20:11.964Z,15.50
2022-10-13T01:22:48.864Z,15.70
2022-10-13T01:25:21.348Z,15.50
2022-10-13T01:27:55.352Z,15.20
2022-10-13T01:30:24.723Z,15.60
2022-10-13T01:33:07.543Z,15.50
2022-10-13T01:35:39.915Z,15.20
2022-10-13T01:38:08.959Z,15.20
2022-10-13T01:40:39.678Z,15.30
2022-10-13T01:43:08.382Z,15.70
2022-10-13T01:45:38.783Z,15.40
2022-10-13T01:48:07.187Z,15.80
2022-10-13T01:50:35.350Z,15.90
2022-10-13T01:53:03.993Z,16.10
2022-10-13T01:55:32.194Z,16.00
2022-10-13T01:58:00.092Z,15.80
2022-10-13T02:00:28.114Z,16.00
2022-10-13T02:02:59.807Z,15.90
2022-10-13T02:05:29.438Z,15.40
2022-10-13T02:07:58.321Z,15.40
2022-10-13T02:10:27.675Z,15.40
2022-10-13T02:12:57.366Z,15.70
2022-10-13T02:15:26.413Z,15.50
2022-10-13T02:17:54.252Z,15.50
2022-10-13T02:20:23.512Z,15.70
2022-10-13T02:22:52.700Z,15.90
2022-10-13T02:25:20.572Z,16.10
2022-10-13T02:27:48.432Z,15.80
2022-10-13T02:30:21.411Z,15.70
2022-10-13T02:32:49.301Z,15.70
2022-10-13T02:35:17.197Z,15.70
2022-10-13T02:37:46.576Z,15.60
2022-10-13T02:40:14.572Z,15.80
2022-10-13T02:42:42.539Z,16.00
2022-10-13T02:45:10.988Z,15.50
2022-10-13T02:47:38.880Z,15.20
2022-10-13T02:50:07.403Z,15.20
2022-10-13T02:52:35.311Z,15.20
2022-10-13T02:55:04.801Z,15.20
2022-10-13T02:57:32.690Z,15.10
2022-10-13T03:00:00.584Z,15.30
2022-10-13T03:02:28.435Z,15.40
2022-10-13T03:04:56.827Z,15.40
2022-10-13T03:07:24.680Z,15.20
2022-10-13T03:09:52.611Z,15.60
2022-10-13T03:12:22.088Z,15.70
2022-10-13T03:14:50.206Z,15.40
2022-10-13T03:17:18.345Z,15.20
2022-10-13T03:19:46.224Z,15.20
2022-10-13T03:22:15.497Z,15.20
2022-10-13T03:24:43.475Z,15.10
2022-10-13T03:27:11.355Z,15.10
2022-10-13T03:29:40.627Z,15.40
2022-10-13T03:32:08.464Z,15.50
2022-10-13T03:34:36.359Z,15.50
2022-10-13T03:37:04.262Z,15.70
2022-10-13T03:39:32.158Z,15.30
2022-10-13T03:42:00.027Z,15.50
2022-10-13T03:44:28.221Z,15.30
2022-10-13T03:46:57.478Z,15.00
2022-10-13T03:49:25.385Z,15.00
2022-10-13T03:51:53.219Z,15.50
2022-10-13T03:54:21.108Z,15.30
2022-10-13T03:56:49.030Z,15.20
2022-10-13T03:59:18.638Z,15.10
2022-10-13T04:01:46.537Z,15.30
2022-10-13T04:04:15.850Z,15.00
2022-10-13T04:06:43.742Z,14.90
2022-10-13T04:09:11.641Z,15.00
2022-10-13T04:11:39.490Z,15.10
2022-10-13T04:14:07.574Z,14.90
2022-10-13T04:16:35.426Z,14.80
2022-10-13T04:19:03.853Z,14.60
2022-10-13T04:21:33.463Z,14.60
2022-10-13T04:24:01.503Z,14.70
2022-10-13T04:26:29.727Z,14.60
2022-10-13T04:28:57.620Z,14.30
2022-10-13T04:31:25.493Z,14.30
2022-10-13T04:33:54.094Z,14.10
2022-10-13T04:36:22.209Z,14.20
2022-10-13T04:38:51.475Z,14.40
2022-10-13T04:41:19.325Z,14.30
2022-10-13T04:43:48.415Z,14.40
2022-10-13T04:46:17.060Z,14.50
2022-10-13T04:48:45.289Z,14.50
2022-10-13T04:51:13.950Z,14.70
2022-10-13T04:53:42.133Z,14.40
2022-10-13T04:56:11.686Z,14.70
2022-10-13T04:58:39.590Z,14.70
2022-10-13T05:01:08.060Z,14.80
2022-10-13T05:03:36.398Z,14.50
2022-10-13T05:06:04.349Z,14.50
2022-10-13T05:08:33.322Z,14.60
2022-10-13T05:11:02.240Z,14.60
2022-10-13T05:13:31.532Z,14.70
2022-10-13T05:15:59.523Z,14.80
2022-10-13T05:18:27.430Z,14.80
2022-10-13T05:20:55.326Z,14.80
2022-10-13T05:23:23.599Z,14.40
2022-10-13T05:25:51.454Z,14.30
2022-10-13T05:28:19.350Z,14.70
2022-10-13T05:30:48.694Z,14.60
2022-10-13T05:33:17.970Z,14.70
2022-10-13T05:35:45.834Z,14.60
2022-10-13T05:38:13.855Z,14.60
2022-10-13T05:40:41.784Z,14.40
2022-10-13T05:43:09.623Z,14.70
2022-10-13T05:45:37.496Z,14.70
2022-10-13T05:48:07.141Z,14.80
2022-10-13T05:50:35.403Z,14.70
2022-10-13T05:53:03.280Z,14.80
2022-10-13T05:55:31.160Z,14.80
2022-10-13T05:57:59.595Z,14.80
2022-10-13T06:00:27.713Z,14.80
2022-10-13T06:02:56.044Z,15.00
2022-10-13T06:05:25.760Z,14.70
2022-10-13T06:07:53.621Z,14.80
2022-10-13T06:10:21.543Z,14.70
2022-10-13T06:12:49.412Z,14.60
2022-10-13T06:15:17.290Z,14.40
2022-10-13T06:17:45.577Z,13.90
2022-10-13T06:20:13.542Z,13.60
2022-10-13T06:22:42.775Z,14.10
2022-10-13T06:25:10.954Z,14.30
2022-10-13T06:27:38.894Z,14.50
2022-10-13T06:30:07.277Z,14.70
2022-10-13T06:32:35.250Z,14.60
2022-10-13T06:35:03.321Z,14.60
2022-10-13T06:37:31.215Z,14.50
2022-10-13T06:40:00.510Z,14.70
2022-10-13T06:42:30.985Z,14.80
2022-10-13T06:44:58.924Z,15.00
2022-10-13T06:47:26.817Z,15.20
2022-10-13T06:49:54.694Z,15.30
2022-10-13T06:52:22.810Z,15.40
2022-10-13T06:54:50.836Z,15.60
2022-10-13T06:57:20.072Z,15.60
2022-10-13T06:59:48.342Z,16.10
2022-10-13T07:02:16.223Z,16.20
2022-10-13T07:04:44.182Z,17.00
2022-10-13T07:07:12.054Z,16.70
2022-10-13T07:09:39.950Z,16.50
2022-10-13T07:12:08.133Z,16.30
2022-10-13T07:14:39.288Z,16.10
2022-10-13T07:17:09.538Z,16.20
2022-10-13T07:19:37.473Z,16.50
2022-10-13T07:22:05.347Z,16.30
2022-10-13T07:24:33.215Z,16.50
2022-10-13T07:27:06.784Z,16.40
2022-10-13T07:29:37.360Z,16.60
2022-10-13T07:32:06.125Z,17.80
2022-10-13T07:34:34.054Z,18.50
2022-10-13T07:37:01.902Z,18.80
2022-10-13T07:39:29.791Z,18.20
2022-10-13T07:41:57.824Z,18.10
2022-10-13T07:44:25.801Z,18.10
2022-10-13T07:46:55.094Z,17.80
2022-10-13T07:49:23.117Z,17.30
2022-10-13T07:51:51.012Z,17.40
2022-10-13T07:54:22.561Z,17.30
2022-10-13T07:56:53.547Z,16.80
2022-10-13T07:59:21.549Z,17.30
2022-10-13T08:01:49.490Z,17.70
2022-10-13T08:04:18.800Z,17.80
2022-10-13T08:06:46.688Z,17.90
2022-10-13T08:09:14.585Z,18.30
2022-10-13T08:11:42.468Z,18.30
2022-10-13T08:14:11.974Z,18.10
2022-10-13T08:16:41.878Z,17.50
2022-10-13T08:19:09.777Z,17.70
2022-10-13T08:21:57.655Z,17.80
2022-10-13T08:24:27.204Z,17.80
2022-10-13T08:26:55.106Z,17.30
2022-10-13T08:29:24.096Z,17.50
2022-10-13T08:31:52.674Z,18.00
2022-10-13T08:34:20.940Z,18.00
2022-10-13T08:36:53.041Z,18.20
2022-10-13T08:39:21.354Z,18.00
2022-10-13T08:41:49.203Z,18.00
2022-10-13T08:47:08.263Z,18.10
2022-10-13T08:49:36.155Z,18.20
2022-10-13T08:52:05.879Z,18.30
2022-10-13T08:54:33.841Z,18.30
2022-10-13T08:59:29.536Z,18.70
2022-10-13T09:01:57.508Z,18.60
2022-10-13T09:04:27.805Z,18.50
2022-10-13T09:06:56.250Z,18.50
2022-10-13T09:09:25.638Z,18.60
2022-10-13T09:11:53.531Z,18.20
2022-10-13T09:14:22.059Z,18.30
2022-10-13T09:16:50.053Z,18.50
2022-10-13T09:19:22.399Z,18.20
2022-10-13T09:21:50.284Z,18.40
2022-10-13T09:24:18.690Z,18.40
2022-10-13T09:26:48.509Z,18.30
2022-10-13T09:29:17.889Z,18.40
2022-10-13T09:31:45.743Z,18.30
2022-10-13T09:34:15.447Z,18.10
2022-10-13T09:36:59.223Z,18.00
2022-10-13T09:39:27.379Z,17.80
2022-10-13T09:42:09.804Z,17.90
2022-10-13T09:44:37.733Z,17.80
2022-10-13T09:47:05.797Z,18.00
2022-10-13T09:49:35.850Z,17.90
2022-10-13T09:52:04.162Z,17.90
2022-10-13T09:54:38.097Z,17.80
2022-10-13T09:57:08.795Z,18.10
2022-10-13T09:59:37.033Z,18.40
2022-10-13T10:02:05.190Z,18.50
2022-10-13T10:04:33.429Z,18.60
2022-10-13T10:07:01.622Z,18.30
2022-10-13T10:09:34.595Z,18.30
2022-10-13T10:12:02.666Z,18.50
2022-10-13T10:14:32.385Z,18.30
2022-10-13T10:17:02.454Z,18.40
2022-10-13T10:19:30.817Z,18.50
2022-10-13T10:22:03.912Z,18.30
2022-10-13T10:24:33.653Z,18.50
2022-10-13T10:27:02.482Z,18.40
2022-10-13T10:29:33.689Z,18.50
2022-10-13T10:32:16.418Z,18.50
2022-10-13T10:34:46.673Z,18.80
2022-10-13T10:37:25.112Z,19.10
2022-10-13T10:39:55.719Z,19.00
2022-10-13T10:42:39.198Z,19.00
2022-10-13T10:45:10.703Z,18.80
2022-10-13T10:47:39.561Z,19.00
2022-10-13T10:50:07.838Z,19.30
2022-10-13T10:52:38.487Z,19.20
2022-10-13T10:55:09.576Z,19.00
2022-10-13T10:57:39.414Z,19.10
2022-10-13T11:00:10.921Z,19.30
2022-10-13T11:02:42.437Z,19.20
2022-10-13T11:05:10.470Z,19.10
2022-10-13T11:07:57.637Z,19.20
2022-10-13T11:10:26.478Z,19.40
2022-10-13T11:13:22.420Z,19.70
2022-10-13T11:15:51.774Z,20.00
2022-10-13T11:18:38.519Z,20.10
2022-10-13T11:21:06.455Z,20.40
2022-10-13T11:23:34.655Z,20.10
2022-10-13T11:26:26.231Z,20.10
2022-10-13T11:28:54.152Z,20.00
2022-10-13T11:31:29.773Z,20.20
2022-10-13T11:34:00.879Z,20.20
2022-10-13T11:36:47.897Z,20.00
2022-10-13T11:39:34.272Z,20.10
2022-10-13T11:42:04.206Z,20.40
2022-10-13T11:44:32.779Z,20.70
2022-10-13T11:47:03.859Z,20.80
2022-10-13T11:49:42.222Z,20.80
2022-10-13T11:52:22.995Z,20.80
2022-10-13T11:54:51.520Z,20.60
2022-10-13T11:57:20.016Z,20.80
2022-10-13T11:59:47.978Z,20.90
2022-10-13T12:02:19.133Z,21.10
2022-10-13T12:04:59.905Z,21.20
2022-10-13T12:07:27.812Z,20.70
2022-10-13T12:09:57.164Z,20.70
2022-10-13T12:12:24.994Z,21.00
2022-10-13T12:14:53.462Z,21.10
2022-10-13T12:17:24.133Z,21.50
2022-10-13T12:19:52.351Z,21.30
2022-10-13T12:22:20.283Z,21.00
2022-10-13T12:24:57.390Z,21.20
2022-10-13T12:27:25.316Z,21.40
2022-10-13T12:29:53.255Z,21.30
2022-10-13T12:32:21.422Z,21.30
2022-10-13T12:34:50.726Z,21.20
2022-10-13T12:37:22.510Z,20.80
2022-10-13T12:39:50.648Z,21.30
2022-10-13T12:42:18.566Z,21.20
2022-10-13T12:44:46.407Z,21.30
2022-10-13T12:47:29.174Z,20.90
2022-10-13T12:50:12.000Z,21.00
2022-10-13T12:52:41.445Z,20.90
2022-10-13T12:55:13.638Z,21.10
2022-10-13T12:57:41.964Z,21.20
2022-10-13T13:00:20.237Z,21.10
2022-10-13T13:02:49.044Z,21.20
2022-10-13T13:05:33.452Z,20.50
2022-10-13T13:08:02.871Z,20.50
2022-10-13T13:10:31.257Z,20.70
2022-10-13T13:13:03.496Z,21.10
2022-10-13T13:15:32.935Z,20.80
2022-10-13T13:18:19.638Z,21.00
2022-10-13T13:20:47.587Z,21.00
2022-10-13T13:23:19.192Z,20.70
2022-10-13T13:25:47.222Z,21.30
2022-10-13T13:28:16.011Z,21.30
2022-10-13T13:30:44.597Z,21.00
2022-10-13T13:33:12.704Z,20.80
2022-10-13T13:35:40.901Z,20.80
2022-10-13T13:38:08.835Z,21.00
2022-10-13T13:40:38.089Z,20.90
2022-10-13T13:43:05.996Z,20.70
2022-10-13T13:45:33.863Z,20.60
2022-10-13T13:48:01.766Z,20.70
2022-10-13T13:50:32.140Z,20.70
2022-10-13T13:53:00.122Z,21.00
2022-10-13T13:55:29.630Z,20.70
2022-10-13T13:57:58.935Z,20.50
2022-10-13T14:00:27.628Z,20.40
2022-10-13T14:02:55.678Z,20.70
2022-10-13T14:05:23.698Z,20.80
2022-10-13T14:07:53.878Z,20.80
2022-10-13T14:10:21.747Z,20.70
2022-10-13T14:12:49.792Z,20.80
2022-10-13T14:15:19.185Z,20.80
2022-10-13T14:17:47.111Z,20.90
2022-10-13T14:20:15.079Z,21.10
2022-10-13T14:22:43.302Z,21.40
2022-10-13T14:25:11.443Z,21.10
2022-10-13T14:27:39.451Z,21.30
2022-10-13T14:30:07.701Z,21.40
2022-10-13T14:32:37.398Z,21.30
2022-10-13T14:35:05.556Z,20.80
2022-10-13T14:37:34.048Z,20.70
2022-10-13T14:40:02.320Z,20.80
2022-10-13T14:42:30.194Z,20.80
2022-10-13T14:44:58.216Z,20.70
2022-10-13T14:47:26.168Z,21.30
2022-10-13T14:49:55.415Z,21.30
2022-10-13T14:52:23.343Z,21.40
2022-10-13T14:54:51.221Z,21.00
2022-10-13T14:57:19.535Z,20.80
2022-10-13T14:59:47.580Z,21.00
2022-10-13T15:02:15.469Z,20.80
2022-10-13T15:04:43.429Z,20.50
2022-10-13T15:07:13.257Z,20.60
2022-10-13T15:10:07.177Z,20.80
2022-10-13T15:12:29.289Z,20.60
2022-10-13T15:15:11.274Z,20.70
2022-10-13T15:21:05.721Z,20.80
2022-10-13T15:23:57.104Z,20.80
2022-10-13T15:26:41.136Z,20.80
2022-10-13T15:29:26.167Z,20.50
2022-10-13T15:32:01.065Z,20.80
2022-10-13T15:34:36.441Z,20.00
2022-10-13T15:37:21.884Z,19.70
2022-10-13T15:39:57.598Z,20.00
2022-10-13T15:42:29.336Z,20.30
2022-10-13T15:45:09.298Z,20.30
2022-10-13T15:48:05.090Z,20.30
2022-10-13T15:50:52.124Z,20.30
2022-10-13T15:53:51.346Z,20.40
2022-10-13T15:56:43.628Z,20.30
2022-10-13T15:59:23.148Z,20.20
2022-10-13T16:02:50.220Z,20.30
2022-10-13T16:06:04.220Z,20.20
2022-10-13T16:22:05.110Z,20.20
2022-10-13T16:31:15.624Z,20.20
2022-10-13T16:33:46.953Z,20.20
2022-10-13T16:39:09.129Z,20.00
2022-10-13T16:41:42.661Z,19.90
2022-10-13T16:44:19.972Z,19.80
2022-10-13T16:47:06.685Z,19.80
2022-10-13T16:49:49.759Z,19.60
2022-10-13T16:52:22.386Z,19.60
2022-10-13T16:54:59.769Z,19.50
2022-10-13T16:57:48.919Z,19.70
2022-10-13T17:00:29.044Z,19.60
2022-10-13T17:03:05.590Z,19.80
2022-10-13T17:05:42.607Z,19.80
2022-10-13T17:08:25.302Z,19.70
2022-10-13T17:11:07.470Z,19.60
2022-10-13T17:13:47.801Z,19.40
2022-10-13T17:16:36.945Z,19.30
2022-10-13T17:19:06.949Z,19.20
2022-10-13T17:21:47.358Z,19.30
2022-10-13T17:25:00.874Z,19.30
2022-10-13T17:27:40.582Z,19.10
2022-10-13T17:30:16.798Z,19.30
2022-10-13T17:36:14.057Z,19.30
2022-10-13T17:44:45.619Z,19.60
2022-10-13T17:47:29.003Z,19.70
2022-10-13T17:50:10.181Z,19.30
2022-10-13T17:53:19.505Z,19.00
2022-10-13T17:56:02.036Z,19.00
2022-10-13T17:58:40.439Z,19.20
2022-10-13T18:01:26.860Z,18.80
2022-10-13T18:03:58.272Z,19.10
2022-10-13T18:06:45.517Z,19.40
2022-10-13T18:09:25.628Z,19.40
2022-10-13T18:12:00.390Z,19.50
2022-10-13T18:14:39.103Z,19.30
2022-10-13T18:17:20.482Z,19.00
2022-10-13T18:20:00.408Z,18.60
2022-10-13T18:22:45.182Z,18.80
2022-10-13T18:25:15.632Z,18.70
2022-10-13T18:28:09.573Z,19.00
2022-10-13T18:30:42.490Z,19.10
2022-10-13T18:33:19.814Z,19.30
2022-10-13T18:36:00.183Z,19.00
2022-10-13T18:38:37.834Z,18.70
2022-10-13T18:41:28.898Z,18.80
2022-10-13T18:44:03.609Z,18.70
2022-10-13T18:46:48.422Z,18.40
2022-10-13T18:52:35.047Z,18.80
2022-10-13T18:55:11.725Z,18.70
2022-10-13T18:58:03.135Z,18.80
2022-10-13T19:00:41.351Z,18.80
2022-10-13T19:03:45.129Z,18.70
2022-10-13T19:06:27.160Z,18.80
2022-10-13T19:09:14.442Z,18.70
2022-10-13T19:11:48.845Z,18.80
2022-10-13T19:14:33.797Z,18.90
2022-10-13T19:17:14.706Z,18.80
2022-10-13T19:19:53.574Z,18.40
2022-10-13T19:28:52.788Z,18.70
2022-10-13T19:31:32.706Z,18.60
2022-10-13T19:36:59.183Z,18.60
2022-10-13T19:39:36.922Z,18.70
2022-10-13T19:45:28.064Z,18.50
2022-10-13T19:48:28.146Z,18.60
2022-10-13T19:51:19.009Z,18.60
2022-10-13T19:54:00.947Z,18.70
2022-10-13T19:59:53.286Z,18.70
2022-10-13T20:02:30.695Z,18.80
2022-10-13T20:11:33.355Z,19.00
2022-10-13T20:14:24.543Z,19.20
2022-10-13T20:23:25.382Z,18.90
2022-10-13T20:26:33.354Z,19.00
2022-10-13T20:29:15.214Z,18.70
2022-10-13T20:32:22.740Z,18.80
2022-10-13T20:35:37.563Z,18.90
2022-10-13T20:38:26.253Z,18.80
2022-10-13T20:46:53.548Z,18.70
2022-10-13T20:49:30.911Z,18.70
2022-10-13T20:52:18.619Z,18.80
2022-10-13T20:54:59.700Z,18.80
2022-10-13T20:57:38.351Z,19.00
2022-10-13T21:00:17.680Z,18.70
2022-10-13T21:02:51.402Z,18.70
2022-10-13T21:05:37.687Z,18.80
2022-10-13T21:08:17.888Z,18.70
2022-10-13T21:10:57.255Z,18.50
2022-10-13T21:13:32.742Z,18.60
2022-10-13T21:16:14.339Z,18.90
2022-10-13T21:18:56.630Z,18.90
2022-10-13T21:21:34.605Z,18.70
2022-10-13T21:27:00.907Z,18.50
2022-10-13T21:29:33.328Z,18.60
2022-10-13T21:32:22.039Z,18.20
2022-10-13T21:34:56.890Z,18.10
2022-10-13T21:37:33.040Z,18.30
2022-10-13T21:40:16.468Z,18.40
2022-10-13T21:42:59.213Z,18.60
2022-10-13T21:45:41.293Z,18.60
2022-10-13T21:48:15.362Z,18.30
2022-10-13T21:50:55.398Z,18.10
2022-10-13T21:53:34.972Z,18.10
2022-10-13T21:56:18.076Z,18.00
2022-10-13T21:58:57.780Z,18.40
2022-10-13T22:01:37.518Z,18.50
2022-10-13T22:04:14.958Z,18.30
2022-10-13T22:06:59.701Z,18.20
2022-10-13T22:09:41.840Z,18.20
2022-10-13T22:12:16.251Z,18.20
2022-10-13T22:14:59.577Z,18.20
2022-10-13T22:17:42.871Z,18.30
2022-10-13T22:20:23.229Z,18.00
2022-10-13T22:23:34.288Z,17.80
2022-10-13T22:26:11.382Z,18.10
2022-10-13T22:29:01.014Z,18.10
2022-10-13T22:31:40.534Z,18.00
2022-10-13T22:34:09.868Z,18.00
2022-10-13T22:36:56.332Z,17.90
2022-10-13T22:39:36.245Z,18.30
2022-10-13T22:42:10.747Z,18.60
2022-10-13T22:44:48.307Z,18.50
2022-10-13T22:47:26.048Z,18.80
2022-10-13T22:50:18.169Z,18.70
2022-10-13T22:52:53.420Z,18.50
2022-10-13T22:55:30.414Z,18.70
2022-10-13T22:58:15.392Z,18.40
2022-10-13T23:00:55.724Z,18.60
2022-10-13T23:03:29.494Z,18.60
2022-10-13T23:06:18.077Z,18.60
2022-10-13T23:08:54.307Z,18.40
2022-10-13T23:11:30.496Z,18.60
2022-10-13T23:14:06.991Z,18.20
2022-10-13T23:16:53.355Z,18.30
2022-10-13T23:19:39.319Z,18.40
2022-10-13T23:22:16.302Z,18.30
2022-10-13T23:24:59.128Z,18.30
2022-10-13T23:27:31.651Z,18.70
2022-10-13T23:30:19.644Z,18.30
2022-10-13T23:33:00.387Z,18.30
2022-10-13T23:35:36.685Z,18.70
2022-10-13T23:38:21.085Z,18.80
2022-10-13T23:40:53.588Z,18.40
2022-10-13T23:43:34.051Z,18.50
2022-10-13T23:46:21.395Z,18.80
2022-10-13T23:48:57.779Z,19.00
2022-10-13T23:51:37.753Z,18.80
2022-10-13T23:54:15.065Z,18.30
2022-10-13T23:57:03.027Z,18.40
2022-10-13T23:59:38.341Z,18.50
